Time;durP1;ratioP1;P1;durP2;ratioP2;P2;SDS_P1;SDS_P2;PMS_P1;PMS_P2;Temp;Humidity;BMP_temperature;BMP_pressure;BME280_temperature;BME280_humidity;BME280_pressure;Samples;Min_cycle;Max_cycle;Signal;HPM_P1;HPM_P2
2022/01/11 00:01:41;;;;;;;9.23;6.05;;;;;;;-4.32;78.96;100194.31;5046914;28;20101;-56
2022/01/11 00:04:07;;;;;;;12.38;7.00;;;;;;;-4.24;80.00;100193.00;5047017;28;20034;-56
2022/01/11 00:06:42;;;;;;;13.82;6.93;;;;;;;-4.23;80.44;100197.28;5045348;28;20037;-56
2022/01/11 00:09:18;;;;;;;9.05;5.30;;;;;;;-4.62;79.25;100204.69;5045456;28;20057;-55
2022/01/11 00:11:43;;;;;;;12.88;6.75;;;;;;;-4.38;81.09;100215.09;5048502;28;20032;-55
2022/01/11 00:14:09;;;;;;;13.63;7.00;;;;;;;-4.29;80.17;100206.22;5059468;28;20028;-56
2022/01/11 00:16:34;;;;;;;11.02;6.70;;;;;;;-4.40;79.48;100206.59;5045762;28;20306;-56
2022/01/11 00:19:05;;;;;;;12.00;6.40;;;;;;;-4.44;80.04;100212.28;5048312;28;20214;-56
2022/01/11 00:21:31;;;;;;;11.77;6.43;;;;;;;-4.58;80.41;100210.78;5055401;28;20033;-55
2022/01/11 00:26:41;;;;;;;12.50;6.20;;;;;;;-4.48;80.18;100222.19;5040641;28;20028;-56
2022/01/11 00:29:06;;;;;;;12.52;7.03;;;;;;;-4.46;79.30;100224.00;5051055;28;20336;-56
2022/01/11 00:31:32;;;;;;;13.00;6.50;;;;;;;-5.09;80.05;100167.91;5053564;28;20021;-56
2022/01/11 00:33:58;;;;;;;11.25;6.95;;;;;;;-4.72;79.84;100232.84;5041219;28;20322;-56
2022/01/11 00:36:31;;;;;;;13.45;6.68;;;;;;;-4.74;79.40;100242.03;5045828;28;20025;-56
2022/01/11 00:38:57;;;;;;;12.48;6.10;;;;;;;-4.73;79.00;100236.16;5043617;28;20311;-56
2022/01/11 00:41:23;;;;;;;13.02;6.00;;;;;;;-4.94;80.39;100239.38;5052307;28;20033;-56
2022/01/11 00:43:48;;;;;;;13.23;6.43;;;;;;;-4.85;79.88;100242.34;5046005;28;20325;-57
2022/01/11 00:46:15;;;;;;;14.82;6.82;;;;;;;-4.83;79.28;100250.00;5045271;28;20025;-55
2022/01/11 00:48:41;;;;;;;13.95;6.55;;;;;;;-4.97;82.00;100245.91;5051885;28;20025;-56
2022/01/11 00:51:09;;;;;;;13.15;7.18;;;;;;;-4.82;80.97;100249.19;5045914;28;20037;-56
2022/01/11 00:53:35;;;;;;;15.00;7.53;;;;;;;-4.76;80.98;100251.16;5051846;28;20032;-56
2022/01/11 00:56:00;;;;;;;12.52;6.47;;;;;;;-4.84;79.36;100253.31;5054568;28;20025;-56
2022/01/11 00:58:26;;;;;;;14.45;6.60;;;;;;;-4.96;81.07;100255.22;5046663;28;20037;-57
2022/01/11 01:00:52;;;;;;;11.77;6.90;;;;;;;-4.95;79.71;100262.03;5044265;28;20373;-56
2022/01/11 01:03:17;;;;;;;11.85;6.32;;;;;;;-4.98;80.16;100257.69;5052246;28;20028;-56
2022/01/11 01:05:44;;;;;;;16.00;7.45;;;;;;;-4.87;80.89;100270.84;5039224;28;20025;-56
2022/01/11 01:08:09;;;;;;;12.95;6.70;;;;;;;-4.92;81.61;100265.56;5044572;28;20148;-56
2022/01/11 01:10:37;;;;;;;12.25;6.78;;;;;;;-4.96;80.97;100258.66;5054430;28;20029;-56
2022/01/11 01:13:11;;;;;;;13.25;7.65;;;;;;;-5.22;80.19;100201.78;5049915;28;20039;-57
2022/01/11 01:15:37;;;;;;;12.27;6.78;;;;;;;-4.96;80.70;100266.22;5043335;28;20045;-56
2022/01/11 01:18:04;;;;;;;12.25;6.80;;;;;;;-4.79;80.66;100282.19;5052739;28;20036;-56
2022/01/11 01:20:29;;;;;;;13.88;6.50;;;;;;;-5.18;79.95;100270.97;5051540;28;20029;-56
2022/01/11 01:22:55;;;;;;;14.57;7.20;;;;;;;-4.89;79.91;100269.91;5048299;28;20056;-56
2022/01/11 01:25:23;;;;;;;11.93;6.82;;;;;;;-5.03;80.51;100287.75;5058031;28;20156;-57
2022/01/11 01:27:50;;;;;;;12.75;7.07;;;;;;;-5.41;79.85;100208.41;5053331;28;20303;-57
2022/01/11 01:30:17;;;;;;;14.15;6.95;;;;;;;-4.91;80.03;100287.50;5043903;28;20037;-57
2022/01/11 01:32:44;;;;;;;11.05;7.15;;;;;;;-4.84;80.23;100288.69;5059344;28;20055;-56
2022/01/11 01:35:12;;;;;;;10.98;6.25;;;;;;;-5.00;80.55;100294.63;5053089;28;20037;-55
2022/01/11 01:37:37;;;;;;;13.38;7.22;;;;;;;-5.03;80.36;100280.19;5044858;28;20100;-56
2022/01/11 01:40:05;;;;;;;11.95;6.65;;;;;;;-5.05;80.22;100293.50;5055510;28;20114;-57
2022/01/11 01:42:31;;;;;;;13.88;6.25;;;;;;;-5.08;80.30;100285.78;5056563;28;20028;-57
2022/01/11 01:45:01;;;;;;;12.40;6.22;;;;;;;-5.21;80.92;100291.88;5047954;28;20032;-57
2022/01/11 01:47:27;;;;;;;12.18;6.05;;;;;;;-5.14;80.38;100301.50;5043720;28;20025;-55
2022/01/11 01:49:53;;;;;;;13.65;7.38;;;;;;;-5.16;80.15;100308.09;5047578;28;20037;-56
2022/01/11 01:52:19;;;;;;;13.07;6.93;;;;;;;-5.10;79.47;100302.50;5050671;28;20041;-55
2022/01/11 01:54:45;;;;;;;12.90;6.65;;;;;;;-5.14;79.94;100293.06;5044086;28;20344;-55
2022/01/11 01:57:11;;;;;;;10.43;6.05;;;;;;;-5.18;78.65;100283.59;5057196;28;20033;-55
2022/01/11 01:59:37;;;;;;;11.07;6.13;;;;;;;-5.01;78.65;100307.19;5045773;28;20029;-56
2022/01/11 02:02:03;;;;;;;10.07;6.00;;;;;;;-5.53;79.41;100308.69;5046470;28;20029;-55
2022/01/11 02:04:29;;;;;;;10.20;6.10;;;;;;;-5.21;79.06;100315.44;5043816;28;20088;-55
2022/01/11 02:06:55;;;;;;;11.45;6.00;;;;;;;-5.08;78.43;100304.31;5047798;28;20041;-56
2022/01/11 02:09:20;;;;;;;10.23;5.60;;;;;;;-5.14;77.78;100315.78;5045764;28;20094;-57
2022/01/11 02:11:47;;;;;;;10.18;6.15;;;;;;;-4.91;79.83;100317.81;5042645;28;20017;-55
2022/01/11 02:14:13;;;;;;;10.95;6.20;;;;;;;-4.95;77.94;100315.06;5043583;28;20035;-55
2022/01/11 02:16:39;;;;;;;9.88;5.75;;;;;;;-5.00;78.52;100308.91;5044405;28;20066;-56
2022/01/11 02:19:05;;;;;;;8.52;5.65;;;;;;;-5.07;78.09;100311.13;5042673;28;20033;-56
2022/01/11 02:21:31;;;;;;;11.30;6.32;;;;;;;-5.06;76.41;100317.91;5042660;28;20021;-56
2022/01/11 02:23:57;;;;;;;9.73;5.35;;;;;;;-5.07;76.42;100301.00;5042419;28;20041;-58
2022/01/11 02:26:23;;;;;;;7.38;4.93;;;;;;;-4.98;77.00;100317.44;5044683;28;20025;-56
2022/01/11 02:28:51;;;;;;;8.30;5.55;;;;;;;-5.22;75.29;100305.28;5055187;28;20139;-56
2022/01/11 02:31:18;;;;;;;8.43;5.32;;;;;;;-5.03;76.82;100320.59;5049613;28;20030;-56
2022/01/11 02:33:48;;;;;;;8.20;5.65;;;;;;;-5.05;76.45;100324.66;5042253;28;20337;-57
2022/01/11 02:36:20;;;;;;;8.50;4.53;;;;;;;-5.38;75.83;100313.69;5043522;28;20060;-56
2022/01/11 02:38:52;;;;;;;5.80;4.47;;;;;;;-5.80;76.09;100266.09;5048454;28;20029;-55
2022/01/11 02:41:18;;;;;;;5.57;4.03;;;;;;;-5.29;76.77;100343.59;5031982;28;20223;-56
2022/01/11 02:43:48;;;;;;;7.60;4.88;;;;;;;-5.33;76.16;100341.69;5042169;28;20033;-55
2022/01/11 02:46:16;;;;;;;8.25;5.57;;;;;;;-5.61;75.80;100274.66;5043627;28;20071;-57
2022/01/11 02:48:41;;;;;;;5.88;4.13;;;;;;;-5.64;76.59;100350.13;5040840;28;20044;-56
2022/01/11 02:51:08;;;;;;;8.50;4.90;;;;;;;-5.64;77.33;100355.19;5042533;28;20029;-56
2022/01/11 02:53:45;;;;;;;6.20;4.05;;;;;;;-5.65;76.80;100359.38;5047670;28;20037;-57
2022/01/11 02:56:12;;;;;;;7.53;4.75;;;;;;;-5.75;77.80;100337.81;5046372;28;20221;-57
2022/01/11 02:58:39;;;;;;;7.22;4.50;;;;;;;-5.73;75.96;100363.13;5042927;28;20032;-56
2022/01/11 03:01:06;;;;;;;6.55;4.38;;;;;;;-5.60;75.18;100367.19;5051954;28;20120;-55
2022/01/11 03:03:31;;;;;;;6.25;4.78;;;;;;;-5.75;76.19;100354.63;5043397;28;20029;-55
2022/01/11 03:06:02;;;;;;;6.85;4.45;;;;;;;-5.67;76.11;100365.09;5033262;28;20079;-55
2022/01/11 03:08:30;;;;;;;8.52;4.85;;;;;;;-5.67;75.72;100370.16;5057771;28;20032;-56
2022/01/11 03:10:57;;;;;;;7.15;4.35;;;;;;;-5.51;76.03;100371.88;5039885;28;20096;-56
2022/01/11 03:13:23;;;;;;;7.25;4.10;;;;;;;-5.67;75.91;100367.63;5044440;28;20032;-56
2022/01/11 03:15:50;;;;;;;7.13;4.40;;;;;;;-5.73;76.06;100370.69;5055834;28;20037;-56
2022/01/11 03:18:16;;;;;;;5.60;3.70;;;;;;;-5.97;76.13;100372.75;5052395;28;20045;-55
2022/01/11 03:20:44;;;;;;;6.28;4.38;;;;;;;-6.21;77.31;100304.19;5042495;28;20053;-56
2022/01/11 03:23:10;;;;;;;6.97;4.18;;;;;;;-5.95;75.24;100381.25;5042570;28;20038;-56
2022/01/11 03:25:36;;;;;;;6.10;4.20;;;;;;;-5.91;75.96;100384.03;5046530;28;20222;-57
2022/01/11 03:28:04;;;;;;;6.68;4.50;;;;;;;-5.89;74.59;100379.06;5046865;28;20056;-56
2022/01/11 03:30:30;;;;;;;7.07;4.60;;;;;;;-5.77;74.87;100394.88;5055617;28;20040;-56
2022/01/11 03:32:56;;;;;;;6.75;4.10;;;;;;;-5.82;75.62;100398.78;5053627;28;20046;-56
2022/01/11 03:35:23;;;;;;;5.75;3.80;;;;;;;-6.02;75.18;100391.81;5049615;28;20310;-56
2022/01/11 03:37:49;;;;;;;5.43;3.55;;;;;;;-6.03;75.49;100400.16;5048751;28;20093;-57
2022/01/11 03:40:19;;;;;;;5.78;3.80;;;;;;;-6.59;75.57;100346.59;5057814;28;20044;-56
2022/01/11 03:42:46;;;;;;;6.90;4.05;;;;;;;-6.26;74.39;100387.09;5045296;28;20029;-56
2022/01/11 03:45:13;;;;;;;6.30;4.28;;;;;;;-6.31;74.11;100396.06;5048059;28;20029;-57
2022/01/11 03:47:39;;;;;;;6.40;3.78;;;;;;;-6.27;74.98;100395.44;5044220;28;20281;-55
2022/01/11 03:50:07;;;;;;;5.75;3.72;;;;;;;-6.23;74.44;100396.50;5054387;28;20045;-57
2022/01/11 03:52:33;;;;;;;6.03;3.58;;;;;;;-6.10;74.68;100407.38;5048433;28;20037;-57
2022/01/11 03:57:29;;;;;;;6.38;4.70;;;;;;;-6.48;74.83;100342.19;5053598;28;20048;-56
2022/01/11 03:59:57;;;;;;;6.28;3.72;;;;;;;-6.15;75.37;100411.25;5048016;28;20029;-56
2022/01/11 04:02:23;;;;;;;5.68;3.90;;;;;;;-6.47;74.40;100415.31;5050003;28;20036;-55
2022/01/11 04:04:52;;;;;;;8.48;4.18;;;;;;;-6.39;74.84;100422.47;5056764;28;20032;-56
2022/01/11 04:07:24;;;;;;;5.10;3.65;;;;;;;-6.66;74.74;100354.56;5049757;28;20313;-56
2022/01/11 04:09:51;;;;;;;5.65;3.78;;;;;;;-6.46;74.55;100409.47;5044940;28;20059;-55
2022/01/11 04:12:18;;;;;;;7.78;3.85;;;;;;;-6.27;73.55;100434.13;5057906;28;20063;-56
2022/01/11 04:14:43;;;;;;;6.53;4.20;;;;;;;-6.12;74.96;100423.19;5051665;28;20037;-56
2022/01/11 04:17:10;;;;;;;6.50;4.05;;;;;;;-6.12;73.12;100435.78;5047228;28;20044;-56
2022/01/11 04:19:35;;;;;;;4.95;3.45;;;;;;;-6.06;72.96;100433.59;5044384;28;20218;-56
2022/01/11 04:22:02;;;;;;;5.10;3.47;;;;;;;-6.01;72.90;100437.28;5045592;28;20055;-56
2022/01/11 04:24:27;;;;;;;5.72;3.95;;;;;;;-6.11;72.12;100438.41;5038989;28;20022;-56
2022/01/11 04:26:53;;;;;;;6.80;4.07;;;;;;;-6.04;73.08;100441.25;5043893;28;20286;-56
2022/01/11 04:29:18;;;;;;;5.68;4.00;;;;;;;-6.01;73.49;100444.84;5052418;28;20078;-56
2022/01/11 04:31:44;;;;;;;7.07;3.90;;;;;;;-6.09;73.34;100441.00;5036855;28;20268;-56
2022/01/11 04:34:10;;;;;;;5.60;3.33;;;;;;;-6.01;73.98;100454.91;5035132;28;20037;-56
2022/01/11 04:36:36;;;;;;;6.65;3.95;;;;;;;-5.98;73.91;100454.22;5056022;28;20345;-56
2022/01/11 04:39:08;;;;;;;5.53;3.88;;;;;;;-6.20;72.83;100447.94;5040088;28;20050;-55
2022/01/11 04:41:34;;;;;;;9.35;4.18;;;;;;;-6.23;72.68;100455.31;5028907;28;20084;-56
2022/01/11 04:44:00;;;;;;;5.25;3.45;;;;;;;-6.33;72.89;100475.72;5051291;28;20077;-56
2022/01/11 04:46:26;;;;;;;6.25;3.88;;;;;;;-6.52;72.40;100478.81;5041478;28;20026;-56
2022/01/11 04:48:53;;;;;;;5.53;4.13;;;;;;;-6.55;71.31;100476.13;5045469;28;20274;-57
2022/01/11 04:51:20;;;;;;;5.20;3.42;;;;;;;-6.47;70.78;100480.81;5043761;28;20085;-57
2022/01/11 04:53:48;;;;;;;7.25;3.90;;;;;;;-6.47;71.07;100482.44;5049302;28;20078;-57
2022/01/11 04:56:15;;;;;;;7.00;3.80;;;;;;;-6.53;72.17;100484.63;5044584;28;20029;-56
2022/01/11 04:58:41;;;;;;;3.78;3.38;;;;;;;-6.68;70.21;100490.47;5045294;28;20033;-57
2022/01/11 05:01:07;;;;;;;7.03;3.13;;;;;;;-6.78;70.38;100495.72;5053367;28;20068;-58
2022/01/11 05:03:33;;;;;;;4.50;3.38;;;;;;;-6.74;71.61;100485.06;5043221;28;20040;-57
2022/01/11 05:05:58;;;;;;;6.50;3.42;;;;;;;-6.71;72.46;100505.41;5059916;28;20037;-58
2022/01/11 05:08:24;;;;;;;8.85;3.58;;;;;;;-6.76;70.89;100500.06;5053208;28;20100;-57
2022/01/11 05:10:50;;;;;;;6.45;3.72;;;;;;;-6.87;72.08;100507.75;5048623;28;20087;-57
2022/01/11 05:13:18;;;;;;;5.35;3.25;;;;;;;-7.07;71.34;100453.66;5054883;28;20043;-57
2022/01/11 05:15:44;;;;;;;5.00;3.30;;;;;;;-6.76;70.84;100511.78;5057167;28;20068;-57
2022/01/11 05:18:10;;;;;;;7.28;3.97;;;;;;;-6.77;72.26;100508.41;5048919;28;20329;-58
2022/01/11 05:20:37;;;;;;;4.70;3.00;;;;;;;-7.08;70.54;100500.63;5044282;28;20021;-58
2022/01/11 05:23:03;;;;;;;5.28;3.50;;;;;;;-7.02;70.91;100500.13;5041876;28;20032;-58
2022/01/11 05:25:29;;;;;;;5.45;3.33;;;;;;;-7.13;70.35;100522.09;5043859;28;20079;-57
2022/01/11 05:27:54;;;;;;;5.35;3.20;;;;;;;-7.14;71.13;100518.72;5046832;28;20322;-56
2022/01/11 05:30:20;;;;;;;5.95;3.78;;;;;;;-7.31;70.73;100519.28;5058009;28;20029;-57
2022/01/11 05:32:48;;;;;;;5.97;3.40;;;;;;;-7.17;71.01;100527.69;5042774;28;20029;-56
2022/01/11 05:35:14;;;;;;;7.00;3.65;;;;;;;-7.11;71.22;100518.91;5046117;28;20226;-57
2022/01/11 05:37:40;;;;;;;5.05;3.35;;;;;;;-7.13;70.63;100522.09;5055409;28;20041;-57
2022/01/11 05:40:07;;;;;;;5.68;3.88;;;;;;;-6.98;71.31;100518.03;5054482;28;20228;-57
2022/01/11 05:42:34;;;;;;;5.95;3.50;;;;;;;-6.82;71.16;100534.09;5044511;28;20029;-57
2022/01/11 05:44:59;;;;;;;4.70;3.15;;;;;;;-6.84;71.88;100541.56;5048816;28;20029;-57
2022/01/11 05:47:25;;;;;;;5.68;3.55;;;;;;;-6.91;72.41;100524.31;5055396;28;20021;-57
2022/01/11 05:49:51;;;;;;;6.22;3.92;;;;;;;-6.89;72.48;100542.91;5049436;28;20071;-57
2022/01/11 05:52:17;;;;;;;6.45;4.03;;;;;;;-7.17;71.49;100542.81;5033737;28;20076;-57
2022/01/11 05:54:43;;;;;;;6.68;3.85;;;;;;;-6.96;71.89;100555.88;5043059;28;20033;-57
2022/01/11 05:57:09;;;;;;;6.32;3.92;;;;;;;-7.03;71.66;100554.59;5057257;28;20040;-57
2022/01/11 05:59:35;;;;;;;7.28;4.10;;;;;;;-7.23;70.09;100560.91;5044311;28;20037;-57
2022/01/11 06:02:01;;;;;;;6.40;3.50;;;;;;;-7.21;70.08;100563.50;5054900;28;20029;-58
2022/01/11 06:04:27;;;;;;;4.97;3.30;;;;;;;-7.19;70.53;100569.53;5051061;28;20032;-57
2022/01/11 06:06:52;;;;;;;7.05;3.83;;;;;;;-7.33;70.86;100561.09;5043420;28;20037;-58
2022/01/11 06:09:18;;;;;;;5.63;3.58;;;;;;;-7.29;70.31;100568.06;5048062;28;20031;-57
2022/01/11 06:11:44;;;;;;;5.10;3.75;;;;;;;-7.27;70.77;100571.53;5052947;28;20036;-58
2022/01/11 06:14:09;;;;;;;5.72;3.67;;;;;;;-7.37;70.04;100571.72;5047185;28;20021;-57
2022/01/11 06:16:36;;;;;;;6.38;3.78;;;;;;;-7.56;69.80;100577.22;5041992;28;20030;-57
2022/01/11 06:19:03;;;;;;;5.45;3.60;;;;;;;-7.54;70.11;100591.63;5042425;28;20029;-57
2022/01/11 06:21:29;;;;;;;5.55;3.40;;;;;;;-7.51;70.37;100593.44;5040760;28;20275;-58
2022/01/11 06:23:54;;;;;;;5.00;3.55;;;;;;;-7.36;70.19;100593.59;5032053;28;20033;-62
2022/01/11 06:26:20;;;;;;;4.53;3.60;;;;;;;-7.75;69.90;100578.50;5043393;28;20048;-59
2022/01/11 06:28:46;;;;;;;8.82;3.90;;;;;;;-7.54;70.29;100599.19;5043435;28;20029;-58
2022/01/11 06:31:12;;;;;;;7.43;3.83;;;;;;;-7.68;70.36;100594.84;5042084;28;20075;-57
2022/01/11 06:33:37;;;;;;;6.30;3.60;;;;;;;-7.75;69.99;100590.19;5041330;28;20033;-58
2022/01/11 06:36:03;;;;;;;4.72;3.05;;;;;;;-7.88;70.92;100589.41;5045586;28;20036;-58
2022/01/11 06:38:29;;;;;;;5.55;3.10;;;;;;;-7.71;70.50;100582.09;5044418;28;20092;-58
2022/01/11 06:40:54;;;;;;;6.65;3.28;;;;;;;-8.06;70.04;100595.69;5041205;28;20045;-58
2022/01/11 06:43:20;;;;;;;4.82;2.90;;;;;;;-8.40;69.92;100604.28;5041827;28;20041;-57
2022/01/11 06:45:46;;;;;;;6.10;3.78;;;;;;;-8.15;70.78;100616.03;5021225;28;20026;-58
2022/01/11 06:48:11;;;;;;;4.70;3.22;;;;;;;-8.16;71.17;100566.56;5027771;28;20117;-60
2022/01/11 06:50:37;;;;;;;4.50;3.08;;;;;;;-7.89;70.22;100624.47;5040293;28;20041;-58
2022/01/11 06:53:03;;;;;;;6.30;3.60;;;;;;;-8.00;70.31;100621.22;5057512;28;20068;-58
2022/01/11 06:55:29;;;;;;;5.38;3.38;;;;;;;-8.23;70.05;100632.22;5049872;28;20035;-58
2022/01/11 06:57:55;;;;;;;6.00;3.72;;;;;;;-8.39;70.02;100626.13;5050903;28;20057;-58
2022/01/11 07:00:21;;;;;;;6.35;3.55;;;;;;;-8.60;70.88;100629.69;5045290;28;20029;-58
2022/01/11 07:02:49;;;;;;;5.32;3.33;;;;;;;-8.68;70.78;100632.53;5032175;28;20222;-58
2022/01/11 07:05:16;;;;;;;5.32;2.88;;;;;;;-8.43;69.42;100643.41;5056131;28;20318;-58
2022/01/11 07:07:43;;;;;;;6.22;3.35;;;;;;;-8.44;70.02;100639.16;5052920;28;20262;-58
2022/01/11 07:10:08;;;;;;;4.97;2.50;;;;;;;-8.40;68.39;100641.09;5046668;28;20037;-58
2022/01/11 07:12:34;;;;;;;5.28;2.90;;;;;;;-8.48;70.06;100652.28;5054245;28;20032;-56
2022/01/11 07:15:00;;;;;;;4.28;2.78;;;;;;;-8.45;69.81;100655.00;5028145;28;20028;-58
2022/01/11 07:17:26;;;;;;;6.20;2.97;;;;;;;-8.57;68.25;100650.84;5046363;28;20025;-57
2022/01/11 07:19:52;;;;;;;6.90;3.55;;;;;;;-8.50;68.58;100658.03;5050723;28;20071;-58
2022/01/11 07:22:17;;;;;;;6.93;3.47;;;;;;;-8.36;69.69;100658.13;5055001;28;20025;-57
2022/01/11 07:24:43;;;;;;;6.70;3.30;;;;;;;-8.41;68.73;100665.31;5045856;28;20037;-57
2022/01/11 07:27:09;;;;;;;5.22;3.47;;;;;;;-8.55;67.33;100648.44;5030233;28;20246;-57
2022/01/11 07:29:34;;;;;;;5.43;3.60;;;;;;;-8.43;68.97;100650.94;5056388;28;20078;-58
2022/01/11 07:32:00;;;;;;;6.43;3.58;;;;;;;-8.56;68.37;100655.13;5042006;28;20021;-58
2022/01/11 07:34:26;;;;;;;4.63;3.00;;;;;;;-8.52;67.76;100656.22;5043433;28;20120;-58
2022/01/11 07:36:51;;;;;;;5.30;3.33;;;;;;;-8.62;67.27;100682.31;5041799;28;20017;-57
2022/01/11 07:39:17;;;;;;;4.18;3.08;;;;;;;-8.62;68.60;100661.31;5043069;28;20085;-58
2022/01/11 07:41:43;;;;;;;4.35;3.20;;;;;;;-8.27;70.21;100680.50;5043176;28;20368;-57
2022/01/11 07:44:09;;;;;;;4.47;3.53;;;;;;;-8.20;68.22;100683.53;5041478;28;20022;-57
2022/01/11 07:46:36;;;;;;;5.78;3.35;;;;;;;-8.22;67.43;100690.09;5048203;28;20032;-58
2022/01/11 07:49:03;;;;;;;8.07;4.05;;;;;;;-8.26;66.50;100695.69;5043859;28;20025;-57
2022/01/11 07:51:29;;;;;;;5.35;3.35;;;;;;;-8.09;66.97;100696.84;5042662;28;20073;-57
2022/01/11 07:53:55;;;;;;;5.97;3.50;;;;;;;-8.27;66.66;100693.94;5043041;28;20302;-57
2022/01/11 07:56:21;;;;;;;4.30;2.85;;;;;;;-8.17;66.37;100690.41;5042027;28;20352;-58
2022/01/11 07:58:47;;;;;;;4.68;3.13;;;;;;;-8.35;67.03;100697.53;5044254;28;20030;-57
2022/01/11 08:01:13;;;;;;;8.13;3.67;;;;;;;-8.13;67.87;100694.91;5055139;28;20037;-57
2022/01/11 08:03:39;;;;;;;6.93;3.65;;;;;;;-8.07;66.55;100702.00;5049512;28;20029;-57
2022/01/11 08:06:05;;;;;;;5.45;3.75;;;;;;;-8.23;65.71;100700.06;5042832;28;20085;-57
2022/01/11 08:08:30;;;;;;;5.80;3.65;;;;;;;-8.32;66.75;100687.72;5041681;28;20061;-58
2022/01/11 08:10:56;;;;;;;5.32;3.42;;;;;;;-8.32;66.10;100685.22;5050849;28;20025;-58
2022/01/11 08:13:24;;;;;;;5.70;3.95;;;;;;;-8.22;67.21;100694.25;5046689;28;20063;-57
2022/01/11 08:15:50;;;;;;;5.18;3.67;;;;;;;-8.28;67.64;100692.16;5044727;28;20025;-58
2022/01/11 08:18:16;;;;;;;4.45;3.20;;;;;;;-8.31;68.78;100691.97;5046231;28;20084;-57
2022/01/11 08:20:43;;;;;;;6.75;3.45;;;;;;;-8.28;68.08;100694.69;5046287;28;20088;-57
2022/01/11 08:23:10;;;;;;;5.85;3.70;;;;;;;-8.11;67.50;100697.50;5044862;28;20116;-57
2022/01/11 08:25:36;;;;;;;4.80;3.20;;;;;;;-8.11;67.20;100697.50;5049116;28;20029;-57
2022/01/11 08:28:02;;;;;;;5.13;3.15;;;;;;;-8.21;68.20;100696.88;5049433;28;20029;-58
2022/01/11 08:30:28;;;;;;;6.03;3.33;;;;;;;-8.40;68.61;100697.22;5044842;28;20036;-57
2022/01/11 08:32:53;;;;;;;6.82;3.97;;;;;;;-8.25;67.56;100699.06;5043205;28;20310;-57
2022/01/11 08:35:19;;;;;;;5.22;3.17;;;;;;;-8.18;67.18;100697.09;5043695;28;20033;-57
2022/01/11 08:37:44;;;;;;;7.22;4.18;;;;;;;-8.22;67.57;100700.16;5043811;28;20104;-57
2022/01/11 08:40:11;;;;;;;7.50;3.83;;;;;;;-8.37;66.97;100699.06;5045973;28;20036;-58
2022/01/11 08:42:38;;;;;;;5.57;3.13;;;;;;;-8.50;66.43;100703.25;5053669;28;20067;-56
2022/01/11 08:45:04;;;;;;;5.10;3.15;;;;;;;-8.47;67.74;100696.72;5043145;28;20044;-57
2022/01/11 08:47:30;;;;;;;4.75;3.38;;;;;;;-8.31;66.32;100704.53;5043533;28;20322;-57
2022/01/11 08:50:02;;;;;;;6.57;3.75;;;;;;;-8.56;65.98;100706.97;5045189;28;20274;-57
2022/01/11 08:52:29;;;;;;;5.38;3.70;;;;;;;-8.76;66.95;100691.34;5048719;28;20266;-58
2022/01/11 08:54:55;;;;;;;5.30;3.40;;;;;;;-8.54;66.97;100700.41;5048143;28;20029;-57
2022/01/11 08:57:21;;;;;;;5.78;3.08;;;;;;;-8.37;66.57;100704.09;5044241;28;20033;-57
2022/01/11 08:59:48;;;;;;;5.15;3.40;;;;;;;-8.50;66.96;100709.91;5040515;28;20105;-58
2022/01/11 09:02:14;;;;;;;8.32;3.88;;;;;;;-8.29;67.04;100695.47;5035862;28;20029;-57
2022/01/11 09:04:41;;;;;;;6.45;3.40;;;;;;;-8.69;67.62;100701.06;5036703;28;20344;-57
2022/01/11 09:07:07;;;;;;;5.97;3.63;;;;;;;-8.73;66.46;100648.03;5045456;28;20029;-57
2022/01/11 09:09:33;;;;;;;5.57;3.63;;;;;;;-8.77;66.21;100702.16;5059664;28;20056;-58
2022/01/11 09:12:03;;;;;;;5.80;3.63;;;;;;;-8.77;66.67;100629.34;5044236;28;20033;-58
2022/01/11 09:14:29;;;;;;;6.93;4.10;;;;;;;-8.12;66.98;100705.81;5054303;28;20253;-58
2022/01/11 09:16:55;;;;;;;5.32;3.22;;;;;;;-8.54;65.28;100702.94;5045410;28;20035;-57
2022/01/11 09:19:21;;;;;;;5.18;3.67;;;;;;;-8.61;65.62;100706.63;5058478;28;20086;-58
2022/01/11 09:21:46;;;;;;;6.25;3.78;;;;;;;-8.46;67.29;100700.94;5053629;28;20225;-57
2022/01/11 09:24:13;;;;;;;5.45;3.42;;;;;;;-8.39;66.15;100705.63;5047697;28;20029;-56
2022/01/11 09:26:39;;;;;;;7.30;3.67;;;;;;;-8.42;66.21;100700.38;5042744;28;20033;-57
2022/01/11 09:29:05;;;;;;;5.50;3.20;;;;;;;-8.22;64.86;100709.31;5045137;28;20068;-57
2022/01/11 09:31:31;;;;;;;6.03;3.50;;;;;;;-8.24;64.81;100714.22;5046038;28;20221;-57
2022/01/11 09:33:57;;;;;;;4.40;3.17;;;;;;;-8.35;65.58;100712.59;5039362;28;20029;-57
2022/01/11 09:36:23;;;;;;;5.70;3.17;;;;;;;-8.55;64.98;100731.31;5055743;28;20064;-58
2022/01/11 09:38:48;;;;;;;5.20;3.03;;;;;;;-8.57;65.55;100707.75;5052482;28;20033;-56
2022/01/11 09:41:15;;;;;;;5.57;3.28;;;;;;;-8.58;65.16;100721.03;5029269;28;20033;-57
2022/01/11 09:43:41;;;;;;;4.35;3.05;;;;;;;-8.55;65.08;100728.78;5055873;28;20063;-56
2022/01/11 09:46:06;;;;;;;5.47;3.50;;;;;;;-8.64;64.52;100703.03;5051772;28;20385;-58
2022/01/11 09:48:34;;;;;;;5.72;3.35;;;;;;;-8.47;64.87;100725.19;5046173;28;20029;-57
2022/01/11 09:51:00;;;;;;;6.20;3.40;;;;;;;-8.35;64.54;100730.19;5043270;28;20100;-59
2022/01/11 09:53:27;;;;;;;4.95;3.42;;;;;;;-8.32;64.74;100756.41;5048073;28;20040;-57
2022/01/11 09:55:54;;;;;;;4.47;2.97;;;;;;;-8.65;65.16;100716.34;5047007;28;20096;-57
2022/01/11 09:58:20;;;;;;;7.18;3.83;;;;;;;-8.62;63.60;100737.53;5045166;28;20326;-58
2022/01/11 10:00:46;;;;;;;5.63;3.13;;;;;;;-8.87;65.37;100735.72;5054731;28;20099;-57
2022/01/11 10:03:12;;;;;;;5.25;3.78;;;;;;;-8.96;64.18;100732.56;5047580;28;20052;-58
2022/01/11 10:05:38;;;;;;;4.57;3.40;;;;;;;-8.55;65.07;100744.75;5045154;28;20037;-57
2022/01/11 10:08:28;;;;;;;9.48;3.92;;;;;;;-8.83;64.78;100715.88;5055772;28;20036;-57
2022/01/11 10:10:57;;;;;;;6.68;3.78;;;;;;;-8.77;63.53;100738.94;5050060;28;20100;-57
2022/01/11 10:13:40;;;;;;;5.72;3.35;;;;;;;-9.03;65.09;100668.50;5043950;28;20037;-58
2022/01/11 10:16:27;;;;;;;4.07;3.00;;;;;;;-8.68;63.73;100752.13;5042909;28;20036;-57
2022/01/11 10:18:54;;;;;;;5.47;2.92;;;;;;;-8.60;64.29;100746.03;5052618;28;20029;-57
2022/01/11 10:21:35;;;;;;;4.55;3.40;;;;;;;-8.45;63.88;100745.41;5046784;28;20033;-57
2022/01/11 10:24:24;;;;;;;5.22;3.53;;;;;;;-8.34;63.32;100739.47;5055462;28;20036;-56
2022/01/11 10:26:53;;;;;;;5.18;3.10;;;;;;;-8.62;62.13;100739.16;5039174;28;20275;-57
2022/01/11 10:29:28;;;;;;;6.40;3.45;;;;;;;-8.43;63.90;100742.22;5040364;28;20088;-57
2022/01/11 10:31:55;;;;;;;5.05;3.22;;;;;;;-8.64;64.44;100746.59;5041974;28;20033;-57
2022/01/11 10:34:32;;;;;;;4.07;2.88;;;;;;;-9.15;63.55;100661.72;5040578;28;20245;-57
2022/01/11 10:37:01;;;;;;;4.97;3.33;;;;;;;-8.75;64.08;100759.97;5040635;28;20028;-56
2022/01/11 10:39:46;;;;;;;5.22;3.78;;;;;;;-8.60;65.61;100741.03;5042406;28;20060;-58
2022/01/11 10:42:47;;;;;;;5.80;3.25;;;;;;;-8.81;64.78;100757.03;5041909;28;20037;-57
2022/01/11 10:45:37;;;;;;;5.82;3.50;;;;;;;-8.75;64.37;100745.81;5039462;28;20033;-57
2022/01/11 10:48:09;;;;;;;7.18;3.78;;;;;;;-9.37;65.53;100681.06;5042012;28;20080;-57
2022/01/11 10:50:39;;;;;;;5.70;3.40;;;;;;;-9.13;66.87;100685.31;5040174;28;20025;-58
2022/01/11 10:53:10;;;;;;;5.90;3.47;;;;;;;-9.17;65.27;100691.72;5042321;28;20056;-58
2022/01/11 10:55:37;;;;;;;5.22;2.97;;;;;;;-8.69;66.17;100760.47;5042649;28;20025;-56
2022/01/11 10:58:05;;;;;;;5.20;3.50;;;;;;;-9.35;64.92;100690.34;5044312;28;20079;-58
2022/01/11 11:00:39;;;;;;;6.82;3.97;;;;;;;-9.22;66.24;100750.69;5041917;28;20036;-58
2022/01/11 11:03:13;;;;;;;6.03;3.38;;;;;;;-9.05;64.89;100764.50;5055474;28;20297;-57
2022/01/11 11:05:52;;;;;;;5.00;3.22;;;;;;;-9.00;64.24;100769.88;5039961;28;20025;-59
2022/01/11 11:08:20;;;;;;;5.57;3.22;;;;;;;-8.96;65.29;100754.25;5048964;28;20310;-57
2022/01/11 11:10:55;;;;;;;3.97;2.85;;;;;;;-8.99;67.08;100767.47;5042170;28;20067;-58
2022/01/11 11:13:31;;;;;;;3.85;2.70;;;;;;;-9.37;65.17;100767.97;5042032;28;20038;-58
2022/01/11 11:16:09;;;;;;;6.05;3.42;;;;;;;-9.69;66.88;100695.34;5042325;28;20029;-58
2022/01/11 11:18:42;;;;;;;6.78;3.25;;;;;;;-9.66;66.69;100671.41;5043467;28;20031;-57
2022/01/11 11:21:21;;;;;;;7.32;3.53;;;;;;;-9.08;66.83;100780.19;5042297;28;20025;-56
2022/01/11 11:23:50;;;;;;;7.13;3.17;;;;;;;-9.42;66.23;100787.69;5040046;28;20041;-57
2022/01/11 11:26:17;;;;;;;5.10;3.30;;;;;;;-9.48;64.77;100768.78;5041678;28;20032;-57
2022/01/11 11:28:42;;;;;;;5.20;3.50;;;;;;;-9.41;65.64;100791.06;5044253;28;20057;-58
2022/01/11 11:31:08;;;;;;;5.07;3.60;;;;;;;-9.50;66.95;100790.34;5043637;28;20038;-57